Capitol Logistics 2291


KORD
Chicago O'Hare International Airport
Chicago, Illinois, US
KSDF
Louisville International Airport-Standiford Field
Louisville, Kentucky, US

Activity Log

Date Flight Route Aircraft Duration
11/24/2019 CPX2291 DENNT DARCY DREGS DONVE TTH CHERI4 B763 1h 31m
03/25/2018 CPX904 DENNT DARCY DREGS DONVE RAMSE FRIZN3 B744 1h 02m

Route Details

Aircraft Information
Primary: Boeing 747-400BCF
Backup: Boeing 767-300BDSF
Date Restrictions
Between:Nov 16, 2019
Dec 31, 2019
Route Data
Distance: 249nm
Sched. Duration: 1h 14m
Avg. Duration: 1h 16m (+2m)
Times Flown: 2
Recm'd Route: DENNT DARCY DREGS DONVE TTH CHERI4
Planned Altitude: 26,000ft
Origin Wx: KORD 200251Z 01008KT 9SM FEW009 OVC013 04/02 A3022 RMK AO2 SLP238 T00440017 53002 $
Dest. Wx: KSDF 200256Z 00000KT 6SM -RA BR OVC011 18/17 A3008 RMK AO2 LTG DSNT S CIG 008V014 SLP186 P0001 60027 T01780172 55000
Notes: SEASONAL FLIGHT | UPS SURGE OPS CONTRACT

Financial History
Total Freight: 298,340lbs
Average Load: 149,170lbs/flt
Fuel Used: 46,979lbs
Avg. Fuel Used: 23,490lbs/flt
Fuel Expense: $55,969
Avg. Fuel Expense: $27,985
Avg. Fuel Cost: $1.17/lbs
Total Gross Income: $537,171
Pilot Pay: $218
Total Expenses: $62,456
Total Revenue: $418,076
Average Revenue: $268,585.66